createdAt,value
2018-04-13T00:02:47.372Z,100439.55
2018-04-13T00:07:48.323Z,100431.65
2018-04-13T00:12:49.287Z,100434.89
2018-04-13T00:17:56.467Z,100428.73
2018-04-13T00:22:57.419Z,100421.52
2018-04-13T00:27:58.381Z,100424.21
2018-04-13T00:33:05.357Z,100420.28
2018-04-13T00:38:06.326Z,100414.52
2018-04-13T00:43:07.302Z,100401.45
2018-04-13T00:48:08.280Z,100386.14
2018-04-13T00:53:21.563Z,100387.48
2018-04-13T00:58:22.528Z,100401.07
2018-04-13T01:03:23.511Z,100418.79
2018-04-13T01:08:24.484Z,100412.67
2018-04-13T01:13:25.416Z,100389.36
2018-04-13T01:18:26.420Z,100395.60
2018-04-13T01:23:27.377Z,100391.05
2018-04-13T01:28:28.356Z,100390.81
2018-04-13T01:33:35.486Z,100400.11
2018-04-13T01:38:42.584Z,100375.16
2018-04-13T01:43:43.581Z,100371.02
2018-04-13T01:48:44.521Z,100373.30
2018-04-13T01:53:51.618Z,100375.38
2018-04-13T01:58:52.570Z,100379.45
2018-04-13T02:03:59.691Z,100362.57
2018-04-13T02:09:06.811Z,100359.18
2018-04-13T02:14:13.903Z,100350.00
2018-04-13T02:19:14.890Z,100348.73
2018-04-13T02:24:15.862Z,100350.48
2018-04-13T02:29:16.840Z,100336.07
2018-04-13T02:34:24.098Z,100360.67
2018-04-13T02:39:24.962Z,100352.70
2018-04-13T02:44:25.929Z,100363.86
2018-04-13T02:49:32.956Z,100358.16
2018-04-13T02:54:33.927Z,100358.27
2018-04-13T02:59:40.910Z,100362.81
2018-04-13T03:04:41.874Z,100351.24
2018-04-13T03:09:42.823Z,100358.70
2018-04-13T03:14:43.791Z,100366.78
2018-04-13T03:19:50.970Z,100362.37
2018-04-13T03:24:51.947Z,100371.16
2018-04-13T03:29:52.911Z,100381.19
2018-04-13T03:34:59.892Z,100359.53
2018-04-13T03:40:00.863Z,100377.72
2018-04-13T03:45:01.835Z,100374.61
2018-04-13T03:50:02.814Z,100367.70
2018-04-13T03:55:09.944Z,100377.41
2018-04-13T04:00:10.906Z,100371.23
2018-04-13T04:05:17.934Z,100374.80
2018-04-13T04:10:18.884Z,100382.98
2018-04-13T04:15:19.828Z,100382.25
2018-04-13T04:20:33.125Z,100375.97
2018-04-13T04:25:52.332Z,100378.67
2018-04-13T04:30:53.283Z,100396.00
2018-04-13T04:35:54.237Z,100395.52
2018-04-13T04:40:55.190Z,100402.09
2018-04-13T04:46:02.331Z,100391.84
2018-04-13T04:51:03.267Z,100403.16
2018-04-13T04:56:04.279Z,100390.58
2018-04-13T05:01:05.250Z,100408.23
2018-04-13T05:06:06.189Z,100418.53
2018-04-13T05:11:07.133Z,100417.44
2018-04-13T05:16:20.344Z,100427.59
2018-04-13T05:21:27.463Z,100434.45
2018-04-13T05:26:28.439Z,100448.06
2018-04-13T05:31:29.392Z,100446.55
2018-04-13T05:36:30.343Z,100456.47
2018-04-13T05:41:31.324Z,100431.03
2018-04-13T05:46:32.268Z,100417.13
2018-04-13T05:51:33.219Z,100423.05
2018-04-13T05:56:46.201Z,100418.82
2018-04-13T06:01:47.150Z,100431.03
2018-04-13T06:06:54.202Z,100438.38
2018-04-13T06:11:55.173Z,100435.86
2018-04-13T06:17:02.160Z,100441.49
2018-04-13T06:22:03.160Z,100431.80
2018-04-13T06:27:04.133Z,100426.99
2018-04-13T06:32:11.256Z,100418.58
2018-04-13T06:37:12.211Z,100429.16
2018-04-13T06:42:19.154Z,100441.92
2018-04-13T06:47:26.127Z,100435.02
2018-04-13T06:52:27.137Z,100445.48
2018-04-13T06:57:34.213Z,100448.77
2018-04-13T07:02:35.201Z,100438.11
2018-04-13T07:07:36.179Z,100441.05
2018-04-13T07:12:37.141Z,100441.85
2018-04-13T07:17:38.098Z,100446.76
2018-04-13T07:22:52.176Z,100449.30
2018-04-13T07:27:59.232Z,100456.06
2018-04-13T07:33:00.210Z,100475.52
2018-04-13T07:38:01.159Z,100488.39
2018-04-13T07:43:02.124Z,100502.64
2018-04-13T07:48:03.095Z,100490.44
2018-04-13T07:53:04.084Z,100493.55
2018-04-13T07:58:11.025Z,100497.20
2018-04-13T08:03:18.141Z,100494.28
2018-04-13T08:08:19.337Z,100487.16
2018-04-13T08:13:20.085Z,100484.28
2018-04-13T08:18:21.068Z,100485.19
2018-04-13T08:23:28.183Z,100486.25
2018-04-13T08:28:29.132Z,100466.12
2018-04-13T08:33:30.110Z,100461.03
2018-04-13T08:38:31.068Z,100450.06
2018-04-13T08:43:32.061Z,100452.16
2018-04-13T08:48:39.155Z,100439.00
2018-04-13T08:53:40.063Z,100431.70
2018-04-13T08:58:47.176Z,100429.56
2018-04-13T09:03:54.374Z,100445.73
2018-04-13T09:08:55.332Z,100474.11
2018-04-13T09:13:56.308Z,100482.78
2018-04-13T09:18:57.253Z,100463.14
2018-04-13T09:23:58.247Z,100483.36
2018-04-13T09:28:59.186Z,100479.50
2018-04-13T09:34:06.260Z,100490.59
2018-04-13T09:39:13.164Z,100512.70
2018-04-13T09:44:20.198Z,100516.62
2018-04-13T09:49:21.164Z,100511.86
2018-04-13T09:54:22.127Z,100534.75
2018-04-13T09:59:23.087Z,100524.58
2018-04-13T10:04:30.171Z,100516.27
2018-04-13T10:09:37.322Z,100509.07
2018-04-13T10:14:44.524Z,100519.71
2018-04-13T10:19:45.493Z,100529.55
2018-04-13T10:24:46.510Z,100531.55
2018-04-13T10:29:53.521Z,100542.06
2018-04-13T10:34:54.477Z,100533.84
2018-04-13T10:39:55.767Z,100538.09
2018-04-13T10:44:56.732Z,100551.20
2018-04-13T10:50:03.929Z,100544.25
2018-04-13T10:55:11.036Z,100541.17
2018-04-13T11:00:11.994Z,100544.05
2018-04-13T11:05:12.956Z,100571.77
2018-04-13T11:10:20.036Z,100578.85
2018-04-13T11:15:20.981Z,100564.05
2018-04-13T11:20:21.953Z,100576.31
2018-04-13T11:25:29.226Z,100571.12
2018-04-13T11:30:36.196Z,100563.45
2018-04-13T11:35:37.166Z,100603.70
2018-04-13T11:40:44.250Z,100588.73
2018-04-13T11:45:45.235Z,100576.22
2018-04-13T11:50:46.669Z,100567.39
2018-04-13T11:55:47.651Z,100554.36
2018-04-13T12:00:48.814Z,100552.37
2018-04-13T12:05:56.093Z,100574.84
2018-04-13T12:10:57.036Z,100580.14
2018-04-13T12:15:58.015Z,100600.94
2018-04-13T12:20:58.963Z,100594.77
2018-04-13T12:26:00.026Z,100567.72
2018-04-13T12:31:01.020Z,100562.13
2018-04-13T12:36:02.038Z,100596.31
2018-04-13T12:41:03.022Z,100555.89
2018-04-13T12:46:04.027Z,100552.55
2018-04-13T12:51:05.061Z,100574.78
2018-04-13T12:56:06.098Z,100578.47
2018-04-13T13:01:07.048Z,100584.03
2018-04-13T13:06:08.024Z,100586.37
2018-04-13T13:11:09.033Z,100597.00
2018-04-13T13:16:10.043Z,100594.11
2018-04-13T13:21:11.090Z,100609.66
2018-04-13T13:26:12.092Z,100601.59
2018-04-13T13:31:13.102Z,100601.11
2018-04-13T13:36:14.121Z,100613.86
2018-04-13T13:41:15.129Z,100634.03
2018-04-13T13:46:16.134Z,100628.38
2018-04-13T13:51:17.131Z,100612.44
2018-04-13T13:56:18.162Z,100626.64
2018-04-13T14:01:19.167Z,100611.77
2018-04-13T14:06:20.147Z,100619.81
2018-04-13T14:11:21.130Z,100618.71
2018-04-13T14:16:22.125Z,100628.01
2018-04-13T14:21:23.176Z,100645.44
2018-04-13T14:26:24.223Z,100639.99
2018-04-13T14:31:25.203Z,100651.16
2018-04-13T14:36:26.216Z,100644.77
2018-04-13T14:41:27.218Z,100631.89
2018-04-13T14:46:28.259Z,100634.46
2018-04-13T14:51:29.265Z,100621.94
2018-04-13T14:56:30.259Z,100625.75
2018-04-13T15:01:31.235Z,100604.47
2018-04-13T15:06:32.269Z,100603.73
2018-04-13T15:11:33.231Z,100605.94
2018-04-13T15:16:34.231Z,100596.73
2018-04-13T15:21:35.211Z,100588.67
2018-04-13T15:26:36.251Z,100588.05
2018-04-13T15:31:37.237Z,100586.81
2018-04-13T15:36:38.273Z,100585.16
2018-04-13T15:41:39.248Z,100587.55
2018-04-13T15:46:40.267Z,100582.67
2018-04-13T15:51:41.282Z,100590.20
2018-04-13T15:56:42.288Z,100600.99
2018-04-13T16:01:43.275Z,100604.34
2018-04-13T16:06:44.308Z,100589.33
2018-04-13T16:11:45.278Z,100595.77
2018-04-13T16:16:46.292Z,100614.27
2018-04-13T16:21:47.279Z,100606.66
2018-04-13T16:26:48.311Z,100603.35
2018-04-13T16:31:49.308Z,100599.68
2018-04-13T16:36:50.316Z,100597.42
2018-04-13T16:41:51.298Z,100587.14
2018-04-13T16:46:52.320Z,100597.89
2018-04-13T16:51:53.335Z,100608.70
2018-04-13T16:56:54.355Z,100598.61
2018-04-13T17:01:55.355Z,100617.20
2018-04-13T17:06:56.366Z,100617.84
2018-04-13T17:11:57.333Z,100617.84
2018-04-13T17:16:58.366Z,100619.41
2018-04-13T17:21:59.344Z,100626.42
2018-04-13T17:27:00.354Z,100626.80
2018-04-13T17:32:01.395Z,100635.92
2018-04-13T17:37:02.375Z,100644.58
2018-04-13T17:42:03.406Z,100637.81
2018-04-13T17:47:04.437Z,100634.59
2018-04-13T17:52:05.472Z,100632.66
2018-04-13T17:57:06.489Z,100636.55
2018-04-13T18:02:07.544Z,100629.45
2018-04-13T18:07:08.550Z,100636.36
2018-04-13T18:12:09.562Z,100648.94
2018-04-13T18:17:10.553Z,100645.62
2018-04-13T18:22:11.575Z,100628.88
2018-04-13T18:27:12.608Z,100655.16
2018-04-13T18:32:13.603Z,100657.66
2018-04-13T18:37:14.595Z,100655.45
2018-04-13T18:42:15.598Z,100656.09
2018-04-13T18:47:16.640Z,100647.42
2018-04-13T18:52:17.694Z,100656.89
2018-04-13T18:57:18.737Z,100657.13
2018-04-13T19:02:19.747Z,100668.50
2018-04-13T19:07:20.737Z,100660.30
2018-04-13T19:12:21.769Z,100658.77
2018-04-13T19:17:22.817Z,100654.55
2018-04-13T19:22:23.862Z,100655.69
2018-04-13T19:27:24.921Z,100655.91
2018-04-13T19:32:25.955Z,100670.30
2018-04-13T19:37:27.062Z,100657.20
2018-04-13T19:42:28.075Z,100672.03
2018-04-13T19:47:29.125Z,100668.70
2018-04-13T19:52:30.144Z,100677.56
2018-04-13T19:57:31.203Z,100676.09
2018-04-13T20:02:32.238Z,100676.14
2018-04-13T20:07:33.327Z,100681.90
2018-04-13T20:12:34.351Z,100675.33
2018-04-13T20:17:35.401Z,100690.09
2018-04-13T20:22:36.380Z,100680.37
2018-04-13T20:27:37.455Z,100678.39
2018-04-13T20:32:38.467Z,100703.06
2018-04-13T20:37:39.519Z,100702.68
2018-04-13T20:42:40.516Z,100695.44
2018-04-13T20:47:41.536Z,100685.93
2018-04-13T20:52:42.528Z,100707.66
2018-04-13T20:57:43.577Z,100709.55
2018-04-13T21:02:44.606Z,100715.03
2018-04-13T21:07:45.618Z,100722.84
2018-04-13T21:12:46.645Z,100728.11
2018-04-13T21:17:47.632Z,100722.38
2018-04-13T21:22:48.626Z,100706.12
2018-04-13T21:27:49.639Z,100713.77
2018-04-13T21:32:50.645Z,100720.38
2018-04-13T21:37:51.623Z,100711.70
2018-04-13T21:42:52.617Z,100699.00
2018-04-13T21:47:53.597Z,100662.30
2018-04-13T21:52:54.605Z,100649.34
2018-04-13T21:57:55.613Z,100659.20
2018-04-13T22:02:56.562Z,100662.95
2018-04-13T22:07:57.601Z,100654.34
2018-04-13T22:13:11.269Z,100682.92
2018-04-13T22:18:13.305Z,100664.39
2018-04-13T22:23:14.300Z,100681.02
2018-04-13T22:28:15.333Z,100673.85
2018-04-13T22:33:16.321Z,100689.21
2018-04-13T22:38:17.308Z,100700.35
2018-04-13T22:43:18.280Z,100703.86
2018-04-13T22:48:19.264Z,100713.25
2018-04-13T22:53:20.225Z,100715.92
2018-04-13T22:58:21.243Z,100704.33
2018-04-13T23:03:22.225Z,100706.05
2018-04-13T23:08:23.305Z,100698.78
2018-04-13T23:13:24.303Z,100687.25
2018-04-13T23:18:25.284Z,100699.50
2018-04-13T23:23:26.265Z,100702.42
2018-04-13T23:28:27.272Z,100733.66
2018-04-13T23:33:28.244Z,100732.41
2018-04-13T23:38:29.237Z,100751.45
2018-04-13T23:43:30.195Z,100776.03
2018-04-13T23:48:31.167Z,100768.87
2018-04-13T23:53:32.125Z,100748.50
2018-04-13T23:58:33.100Z,100754.53
